createdAt,value
2023-04-03T00:01:00.965Z,0.43
2023-04-03T00:03:30.427Z,0.50
2023-04-03T00:05:58.668Z,0.40
2023-04-03T00:08:26.600Z,0.70
2023-04-03T00:10:54.520Z,0.30
2023-04-03T00:13:22.400Z,0.47
2023-04-03T00:15:50.345Z,0.50
2023-04-03T00:18:18.262Z,0.50
2023-04-03T00:20:47.555Z,0.50
2023-04-03T00:23:15.847Z,0.40
2023-04-03T00:25:43.936Z,0.47
2023-04-03T00:28:12.545Z,0.50
2023-04-03T00:30:40.488Z,0.40
2023-04-03T00:33:08.528Z,0.50
2023-04-03T00:35:37.210Z,0.30
2023-04-03T00:38:06.766Z,0.50
2023-04-03T00:40:38.238Z,0.60
2023-04-03T00:43:14.218Z,0.50
2023-04-03T00:45:43.213Z,0.80
2023-04-03T00:48:15.606Z,0.40
2023-04-03T00:50:45.320Z,0.60
2023-04-03T00:53:18.399Z,0.50
2023-04-03T00:55:48.600Z,0.63
2023-04-03T00:58:19.094Z,0.60
2023-04-03T01:00:52.557Z,0.60
2023-04-03T01:03:21.260Z,0.40
2023-04-03T01:05:49.243Z,0.50
2023-04-03T01:08:18.746Z,0.60
2023-04-03T01:10:46.616Z,0.50
2023-04-03T01:13:27.115Z,0.53
2023-04-03T01:15:55.601Z,0.50
2023-04-03T01:18:24.842Z,0.70
2023-04-03T01:21:37.029Z,0.50
2023-04-03T01:24:15.037Z,0.70
2023-04-03T01:26:43.609Z,0.70
2023-04-03T01:29:12.341Z,0.60
2023-04-03T01:31:54.193Z,0.40
2023-04-03T01:34:22.413Z,0.73
2023-04-03T01:36:50.306Z,0.50
2023-04-03T01:39:18.605Z,0.40
2023-04-03T01:41:46.935Z,0.60
2023-04-03T01:44:14.830Z,0.70
2023-04-03T01:46:43.370Z,0.90
2023-04-03T01:49:12.681Z,0.57
2023-04-03T01:51:40.597Z,0.60
2023-04-03T01:54:08.530Z,0.50
2023-04-03T01:56:36.585Z,0.40
2023-04-03T01:59:04.510Z,0.50
2023-04-03T02:01:32.533Z,0.60
2023-04-03T02:04:00.645Z,0.90
2023-04-03T02:06:29.990Z,0.70
2023-04-03T02:08:57.898Z,0.80
2023-04-03T02:11:25.817Z,0.80
2023-04-03T02:13:53.741Z,0.73
2023-04-03T02:16:21.661Z,0.67
2023-04-03T02:18:49.575Z,0.50
2023-04-03T02:21:17.470Z,0.60
2023-04-03T02:23:46.732Z,0.97
2023-04-03T02:26:16.994Z,0.50
2023-04-03T02:28:45.545Z,0.80
2023-04-03T02:33:41.494Z,0.60
2023-04-03T02:36:10.887Z,0.63
2023-04-03T02:38:38.807Z,0.77
2023-04-03T02:41:10.036Z,0.60
2023-04-03T02:43:38.197Z,0.50
2023-04-03T02:46:06.676Z,0.67
2023-04-03T02:48:35.261Z,0.67
2023-04-03T02:51:03.156Z,0.70
2023-04-03T02:53:31.123Z,0.87
2023-04-03T02:55:59.082Z,1.00
2023-04-03T02:58:28.409Z,0.70
2023-04-03T03:00:56.354Z,0.70
2023-04-03T03:03:24.362Z,0.77
2023-04-03T03:05:52.277Z,0.80
2023-04-03T03:08:21.184Z,0.87
2023-04-03T03:10:49.169Z,0.90
2023-04-03T03:13:17.193Z,0.67
2023-04-03T03:15:46.544Z,1.00
2023-04-03T03:18:14.536Z,0.90
2023-04-03T03:20:42.445Z,0.87
2023-04-03T03:23:10.367Z,0.60
2023-04-03T03:25:40.259Z,0.90
2023-04-03T03:28:08.768Z,0.60
2023-04-03T03:30:36.873Z,1.20
2023-04-03T03:33:06.355Z,0.80
2023-04-03T03:35:35.175Z,0.90
2023-04-03T03:38:03.317Z,1.20
2023-04-03T03:40:31.220Z,0.63
2023-04-03T03:42:59.121Z,0.80
2023-04-03T03:45:27.033Z,0.80
2023-04-03T03:47:55.378Z,1.00
2023-04-03T03:50:24.892Z,1.33
2023-04-03T03:52:52.961Z,0.97
2023-04-03T03:55:20.948Z,0.77
2023-04-03T03:57:48.954Z,0.80
2023-04-03T04:00:17.312Z,0.60
2023-04-03T04:02:45.794Z,0.90
2023-04-03T04:05:13.857Z,0.60
2023-04-03T04:07:43.148Z,0.97
2023-04-03T04:10:11.999Z,0.90
2023-04-03T04:12:39.953Z,0.73
2023-04-03T04:15:09.176Z,1.07
2023-04-03T04:17:37.178Z,1.13
2023-04-03T04:20:06.021Z,0.83
2023-04-03T04:22:34.022Z,1.13
2023-04-03T04:25:03.591Z,0.90
2023-04-03T04:27:31.525Z,0.87
2023-04-03T04:29:59.564Z,0.90
2023-04-03T04:32:27.565Z,0.80
2023-04-03T04:34:55.778Z,0.60
2023-04-03T04:37:23.672Z,1.10
2023-04-03T04:39:51.837Z,1.00
2023-04-03T04:42:21.115Z,0.70
2023-04-03T04:44:49.023Z,1.10
2023-04-03T04:47:16.949Z,0.87
2023-04-03T04:49:44.859Z,1.00
2023-04-03T04:52:12.773Z,0.80
2023-04-03T04:54:40.785Z,1.00
2023-04-03T04:57:08.773Z,1.10
2023-04-03T04:59:38.021Z,0.83
2023-04-03T05:02:05.998Z,1.03
2023-04-03T05:04:34.299Z,0.87
2023-04-03T05:07:02.381Z,0.83
2023-04-03T05:09:30.290Z,0.80
2023-04-03T05:11:58.256Z,0.80
2023-04-03T05:14:26.179Z,1.07
2023-04-03T05:16:55.504Z,0.90
2023-04-03T05:19:23.508Z,0.97
2023-04-03T05:21:51.448Z,1.20
2023-04-03T05:24:20.765Z,1.10
2023-04-03T05:26:48.754Z,1.13
2023-04-03T05:29:16.709Z,1.00
2023-04-03T05:31:44.662Z,1.20
2023-04-03T05:34:13.999Z,1.10
2023-04-03T05:36:42.447Z,1.33
2023-04-03T05:39:13.465Z,1.10
2023-04-03T05:41:41.352Z,1.30
2023-04-03T05:44:09.317Z,1.10
2023-04-03T05:46:37.269Z,0.93
2023-04-03T05:49:05.200Z,1.00
2023-04-03T05:51:37.969Z,1.03
2023-04-03T05:54:13.098Z,1.00
2023-04-03T05:56:41.086Z,0.70
2023-04-03T05:59:09.449Z,0.70
2023-04-03T06:01:37.364Z,0.70
2023-04-03T06:04:05.445Z,0.77
2023-04-03T06:06:48.040Z,0.50
2023-04-03T06:09:17.108Z,0.70
2023-04-03T06:11:45.044Z,0.60
2023-04-03T06:14:13.343Z,0.30
2023-04-03T06:16:41.549Z,0.50
2023-04-03T06:19:10.612Z,0.40
2023-04-03T06:21:39.330Z,0.57
2023-04-03T06:24:09.352Z,0.50
2023-04-03T06:26:37.288Z,0.40
2023-04-03T06:29:05.548Z,0.50
2023-04-03T06:31:33.768Z,0.37
2023-04-03T06:34:02.291Z,0.40
2023-04-03T06:36:30.832Z,0.30
2023-04-03T06:38:59.119Z,0.60
2023-04-03T06:41:28.441Z,0.37
2023-04-03T06:43:57.383Z,0.33
2023-04-03T06:46:32.997Z,0.40
2023-04-03T06:49:04.678Z,0.50
2023-04-03T06:51:32.900Z,0.40
2023-04-03T06:54:04.940Z,0.40
2023-04-03T06:56:34.812Z,0.30
2023-04-03T06:59:02.978Z,0.40
2023-04-03T07:01:31.777Z,0.40
2023-04-03T07:03:59.732Z,0.40
2023-04-03T07:06:30.872Z,0.50
2023-04-03T07:08:58.924Z,0.60
2023-04-03T07:11:27.234Z,0.30
2023-04-03T07:13:57.537Z,0.40
2023-04-03T07:16:32.184Z,0.50
2023-04-03T07:19:00.196Z,0.40
2023-04-03T07:21:28.191Z,0.40
2023-04-03T07:23:56.631Z,0.30
2023-04-03T07:26:24.717Z,0.40
2023-04-03T07:28:52.601Z,0.40
2023-04-03T07:31:22.090Z,0.30
2023-04-03T07:33:50.072Z,0.30
2023-04-03T07:36:21.755Z,0.20
2023-04-03T07:38:49.922Z,0.40
2023-04-03T07:41:21.007Z,0.30
2023-04-03T07:43:50.612Z,0.30
2023-04-03T07:46:19.732Z,0.40
2023-04-03T07:48:49.277Z,0.40
2023-04-03T07:51:20.619Z,0.40
2023-04-03T07:53:49.509Z,0.30
2023-04-03T07:59:14.860Z,0.30
2023-04-03T08:01:42.804Z,0.40
2023-04-03T08:04:12.185Z,0.40
2023-04-03T08:06:50.986Z,0.50
2023-04-03T08:12:12.482Z,0.30
2023-04-03T08:14:40.799Z,0.40
2023-04-03T08:17:16.560Z,0.40
2023-04-03T08:19:48.772Z,0.30
2023-04-03T08:22:17.116Z,0.33
2023-04-03T08:24:52.543Z,0.40
2023-04-03T08:27:28.209Z,0.50
2023-04-03T08:29:56.342Z,0.37
2023-04-03T08:32:25.118Z,0.30
2023-04-03T08:34:54.918Z,0.40
2023-04-03T08:37:32.853Z,0.40
2023-04-03T08:40:00.939Z,0.47
2023-04-03T08:42:44.565Z,1.07
2023-04-03T08:45:16.383Z,0.50
2023-04-03T08:47:51.440Z,0.50
2023-04-03T08:50:24.302Z,0.40
2023-04-03T08:52:54.866Z,0.30
2023-04-03T08:55:28.005Z,0.30
2023-04-03T08:58:02.754Z,0.40
2023-04-03T09:00:36.724Z,0.30
2023-04-03T09:03:04.759Z,0.30
2023-04-03T09:05:44.115Z,0.20
2023-04-03T09:08:23.337Z,0.33
2023-04-03T09:10:51.761Z,0.40
2023-04-03T09:13:30.325Z,0.50
2023-04-03T09:15:59.330Z,0.40
2023-04-03T09:18:33.051Z,0.30
2023-04-03T09:21:09.977Z,0.50
2023-04-03T09:23:46.119Z,0.40
2023-04-03T09:26:20.183Z,0.30
2023-04-03T09:28:50.755Z,0.40
2023-04-03T09:31:23.699Z,0.40
2023-04-03T09:33:54.463Z,0.40
2023-04-03T09:36:43.851Z,0.30
2023-04-03T09:39:15.491Z,0.30
2023-04-03T09:41:44.456Z,0.30
2023-04-03T09:44:24.392Z,0.30
2023-04-03T09:46:52.398Z,0.40
2023-04-03T09:49:20.778Z,0.30
2023-04-03T09:51:50.054Z,0.30
2023-04-03T09:54:38.282Z,0.40
2023-04-03T09:57:14.615Z,0.30
2023-04-03T09:59:47.169Z,0.40
2023-04-03T10:02:37.679Z,0.40
2023-04-03T10:05:09.929Z,0.33
2023-04-03T10:07:44.459Z,0.50
2023-04-03T10:10:24.839Z,0.40
2023-04-03T10:13:06.641Z,0.40
2023-04-03T10:15:42.438Z,0.30
2023-04-03T10:18:30.899Z,0.40
2023-04-03T10:21:09.625Z,0.30
2023-04-03T10:23:47.103Z,0.27
2023-04-03T10:26:26.588Z,0.30
2023-04-03T10:28:59.934Z,0.30
2023-04-03T10:31:35.964Z,0.40
2023-04-03T10:34:09.859Z,0.30
2023-04-03T10:36:44.896Z,0.30
2023-04-03T10:39:27.378Z,0.30
2023-04-03T10:42:15.178Z,0.30
2023-04-03T10:44:57.791Z,0.40
2023-04-03T10:47:34.158Z,0.40
2023-04-03T10:50:13.621Z,0.40
2023-04-03T10:52:47.562Z,0.40
2023-04-03T10:55:31.664Z,0.40
2023-04-03T10:58:01.698Z,0.37
2023-04-03T11:00:38.157Z,0.50
2023-04-03T11:03:11.046Z,0.30
2023-04-03T11:05:42.752Z,0.30
2023-04-03T11:08:19.584Z,0.40
2023-04-03T11:10:52.838Z,0.53
2023-04-03T11:13:26.233Z,0.40
2023-04-03T11:15:56.278Z,0.50
2023-04-03T11:18:29.121Z,0.30
2023-04-03T11:21:05.549Z,0.30
2023-04-03T11:23:48.269Z,0.40
2023-04-03T11:26:21.849Z,0.30
2023-04-03T11:28:54.883Z,0.50
2023-04-03T11:31:35.566Z,0.33
2023-04-03T11:34:18.004Z,0.40
2023-04-03T11:36:50.063Z,0.40
2023-04-03T11:39:25.720Z,0.30
2023-04-03T11:42:06.916Z,0.37
2023-04-03T11:44:40.033Z,0.40
2023-04-03T11:47:09.896Z,0.40
2023-04-03T11:50:01.540Z,0.30
2023-04-03T11:52:58.670Z,0.47
2023-04-03T11:55:54.832Z,0.40
2023-04-03T11:58:25.225Z,0.40
2023-04-03T12:00:56.008Z,0.40
2023-04-03T12:03:49.442Z,0.30
2023-04-03T12:06:59.557Z,0.30
2023-04-03T12:09:31.699Z,0.30
2023-04-03T12:12:02.797Z,0.33
2023-04-03T12:14:32.119Z,0.40
2023-04-03T12:17:00.820Z,0.30
2023-04-03T12:22:21.415Z,0.40
2023-04-03T12:24:51.627Z,0.30
2023-04-03T12:27:27.793Z,0.50
2023-04-03T12:30:04.500Z,0.40
2023-04-03T12:33:05.770Z,0.40
2023-04-03T12:35:42.110Z,0.40
2023-04-03T12:38:37.430Z,0.30
2023-04-03T12:41:23.802Z,0.50
2023-04-03T12:44:06.822Z,0.47
2023-04-03T12:46:41.605Z,0.30
2023-04-03T12:49:24.827Z,0.20
2023-04-03T12:51:52.845Z,0.40
2023-04-03T12:54:25.138Z,0.30
2023-04-03T12:56:53.044Z,0.40
2023-04-03T12:59:23.308Z,0.40
2023-04-03T13:02:02.499Z,0.30
2023-04-03T13:04:33.270Z,0.30
2023-04-03T13:07:02.077Z,0.40
2023-04-03T13:09:32.025Z,0.30
2023-04-03T13:12:05.050Z,0.50
2023-04-03T13:14:34.322Z,0.20
2023-04-03T13:17:14.514Z,0.40
2023-04-03T13:19:43.755Z,0.40
2023-04-03T13:22:30.798Z,0.30
2023-04-03T13:25:03.521Z,0.40
2023-04-03T13:27:33.261Z,0.40
2023-04-03T13:30:04.030Z,0.40
2023-04-03T13:32:34.446Z,0.37
2023-04-03T13:35:15.556Z,0.37
2023-04-03T13:37:56.697Z,0.27
2023-04-03T13:40:38.158Z,0.40
2023-04-03T13:43:21.010Z,0.40
2023-04-03T13:46:06.642Z,0.23
2023-04-03T13:48:44.706Z,0.40
2023-04-03T13:51:21.982Z,0.30
2023-04-03T13:53:52.425Z,0.40
2023-04-03T13:56:31.856Z,0.30
2023-04-03T13:59:05.443Z,0.27
2023-04-03T14:01:43.824Z,0.30
2023-04-03T14:04:22.497Z,0.30
2023-04-03T14:06:50.986Z,0.20
2023-04-03T14:09:20.426Z,0.30
2023-04-03T14:11:50.248Z,0.30
2023-04-03T14:14:21.304Z,0.30
2023-04-03T14:16:53.743Z,0.30
2023-04-03T14:19:25.773Z,0.30
2023-04-03T14:21:54.784Z,0.40
2023-04-03T14:24:23.569Z,0.30
2023-04-03T14:26:52.568Z,0.30
2023-04-03T14:29:21.414Z,0.40
2023-04-03T14:31:57.706Z,0.30
2023-04-03T14:34:29.993Z,0.40
2023-04-03T14:36:57.946Z,0.20
2023-04-03T14:39:25.896Z,0.30
2023-04-03T14:41:53.810Z,0.30
2023-04-03T14:44:21.869Z,0.30
2023-04-03T14:46:56.727Z,0.40
2023-04-03T14:49:29.008Z,0.40
2023-04-03T14:51:58.957Z,0.40
2023-04-03T14:54:28.766Z,0.40
2023-04-03T14:57:00.524Z,0.30
2023-04-03T14:59:29.690Z,0.40
2023-04-03T15:01:57.826Z,0.27
2023-04-03T15:04:26.337Z,0.30
2023-04-03T15:06:54.993Z,0.30
2023-04-03T15:09:26.323Z,0.23
2023-04-03T15:11:55.791Z,0.40
2023-04-03T15:14:35.753Z,0.30
2023-04-03T15:17:05.803Z,0.40
2023-04-03T15:19:37.822Z,0.40
2023-04-03T15:22:05.870Z,0.40
2023-04-03T15:24:35.322Z,0.40
2023-04-03T15:27:03.460Z,0.33
2023-04-03T15:29:31.386Z,0.40
2023-04-03T15:31:59.378Z,0.40
2023-04-03T15:34:27.354Z,0.30
2023-04-03T15:36:55.454Z,0.40
2023-04-03T15:39:24.205Z,0.30
2023-04-03T15:41:54.743Z,0.37
2023-04-03T15:44:23.163Z,0.40
2023-04-03T15:46:52.165Z,0.30
2023-04-03T15:49:20.961Z,0.40
2023-04-03T15:51:48.890Z,0.30
2023-04-03T15:54:18.058Z,0.40
2023-04-03T15:56:46.021Z,0.30
2023-04-03T15:59:15.340Z,0.40
2023-04-03T16:01:44.008Z,0.30
2023-04-03T16:04:13.780Z,0.30
2023-04-03T16:06:43.945Z,0.40
2023-04-03T16:09:12.563Z,0.40
2023-04-03T16:11:41.665Z,0.30
2023-04-03T16:14:10.024Z,0.40
2023-04-03T16:16:40.345Z,0.50
2023-04-03T16:19:09.068Z,0.33
2023-04-03T16:21:37.020Z,0.30
2023-04-03T16:24:05.910Z,0.30
2023-04-03T16:26:34.287Z,0.30
2023-04-03T16:29:02.348Z,0.30
2023-04-03T16:31:30.695Z,0.50
2023-04-03T16:34:00.155Z,0.40
2023-04-03T16:36:28.137Z,0.40
2023-04-03T16:38:56.122Z,0.50
2023-04-03T16:41:24.157Z,0.30
2023-04-03T16:43:52.353Z,0.40
2023-04-03T16:46:20.302Z,0.47
2023-04-03T16:48:48.307Z,0.30
2023-04-03T16:51:17.579Z,0.47
2023-04-03T16:53:45.531Z,0.50
2023-04-03T16:56:13.442Z,0.30
2023-04-03T16:58:41.343Z,0.40
2023-04-03T17:01:14.166Z,0.43
2023-04-03T17:03:42.247Z,0.50
2023-04-03T17:06:16.668Z,0.30
2023-04-03T17:08:46.801Z,0.40
2023-04-03T17:11:15.109Z,0.50
2023-04-03T17:13:43.081Z,0.40
2023-04-03T17:16:14.677Z,0.30
2023-04-03T17:18:42.949Z,0.40
2023-04-03T17:21:11.074Z,0.40
2023-04-03T17:23:39.552Z,0.30
2023-04-03T17:26:08.867Z,0.37
2023-04-03T17:28:36.926Z,0.40
2023-04-03T17:31:05.090Z,0.40
2023-04-03T17:33:33.065Z,0.30
2023-04-03T17:36:02.411Z,0.40
2023-04-03T17:38:30.312Z,0.43
2023-04-03T17:40:59.051Z,0.33
2023-04-03T17:43:28.873Z,0.40
2023-04-03T17:46:03.632Z,0.40
2023-04-03T17:48:31.831Z,0.40
2023-04-03T17:50:59.944Z,0.40
2023-04-03T17:53:27.968Z,0.60
2023-04-03T17:55:55.851Z,0.57
2023-04-03T17:58:23.983Z,0.50
2023-04-03T18:00:55.140Z,0.50
2023-04-03T18:03:23.117Z,0.40
2023-04-03T18:05:54.916Z,0.50
2023-04-03T18:08:23.497Z,0.60
2023-04-03T18:10:51.468Z,0.50
2023-04-03T18:13:19.449Z,0.40
2023-04-03T18:15:47.430Z,0.50
2023-04-03T18:18:16.753Z,0.50
2023-04-03T18:20:44.667Z,0.30
2023-04-03T18:23:12.567Z,0.50
2023-04-03T18:25:40.666Z,0.40
2023-04-03T18:28:09.036Z,0.47
2023-04-03T18:30:37.599Z,0.50
2023-04-03T18:33:05.945Z,0.53
2023-04-03T18:35:35.557Z,0.40
2023-04-03T18:38:04.122Z,0.30
2023-04-03T18:40:33.019Z,0.40
2023-04-03T18:43:01.345Z,0.40
2023-04-03T18:45:29.955Z,0.50
2023-04-03T18:47:58.921Z,0.40
2023-04-03T18:50:27.007Z,0.40
2023-04-03T18:52:56.342Z,0.50
2023-04-03T18:55:24.245Z,0.40
2023-04-03T18:57:52.144Z,0.40
2023-04-03T19:00:20.290Z,0.50
2023-04-03T19:02:49.586Z,0.50
2023-04-03T19:05:19.622Z,0.40
2023-04-03T19:07:49.359Z,0.40
2023-04-03T19:10:19.956Z,0.30
2023-04-03T19:12:49.932Z,0.40
2023-04-03T19:15:19.405Z,0.40
2023-04-03T19:17:47.765Z,0.50
2023-04-03T19:20:16.601Z,0.40
2023-04-03T19:22:45.063Z,0.50
2023-04-03T19:25:13.813Z,0.30
2023-04-03T19:27:43.108Z,0.33
2023-04-03T19:30:13.145Z,0.40
2023-04-03T19:32:41.375Z,0.30
2023-04-03T19:35:10.338Z,0.50
2023-04-03T19:37:38.285Z,0.37
2023-04-03T19:40:07.814Z,0.30
2023-04-03T19:42:40.146Z,0.30
2023-04-03T19:45:11.480Z,0.40
2023-04-03T19:47:39.594Z,0.30
2023-04-03T19:50:08.559Z,0.40
2023-04-03T19:52:36.492Z,0.47
2023-04-03T19:55:04.691Z,0.57
2023-04-03T19:57:32.614Z,0.30
2023-04-03T20:00:01.068Z,0.30
2023-04-03T20:02:30.364Z,0.63
2023-04-03T20:04:58.412Z,0.40
2023-04-03T20:07:26.335Z,0.30
2023-04-03T20:09:54.270Z,0.40
2023-04-03T20:12:22.211Z,0.50
2023-04-03T20:14:50.380Z,0.40
2023-04-03T20:17:18.338Z,0.30
2023-04-03T20:19:47.988Z,0.40
2023-04-03T20:22:15.957Z,0.50
2023-04-03T20:24:43.874Z,0.40
2023-04-03T20:27:11.878Z,0.30
2023-04-03T20:29:39.965Z,0.40
2023-04-03T20:32:10.407Z,0.40
2023-04-03T20:34:38.352Z,0.40
2023-04-03T20:37:08.464Z,0.30
2023-04-03T20:39:36.549Z,0.43
2023-04-03T20:42:05.401Z,0.30
2023-04-03T20:44:33.289Z,0.40
2023-04-03T20:47:01.218Z,0.47
2023-04-03T20:49:29.143Z,0.40
2023-04-03T20:51:57.080Z,0.40
2023-04-03T20:54:26.758Z,0.50
2023-04-03T20:56:54.661Z,0.30
2023-04-03T20:59:22.853Z,0.50
2023-04-03T21:04:26.527Z,0.30
2023-04-03T21:07:31.812Z,0.30
2023-04-03T21:10:37.297Z,0.33
2023-04-03T21:13:42.670Z,0.40
2023-04-03T21:16:10.317Z,0.40
2023-04-03T21:19:03.654Z,0.40
2023-04-03T21:21:31.515Z,0.33
2023-04-03T21:24:00.053Z,0.40
2023-04-03T21:26:28.612Z,0.30
2023-04-03T21:28:56.841Z,0.40
2023-04-03T21:31:25.373Z,0.40
2023-04-03T21:33:54.698Z,0.20
2023-04-03T21:36:22.589Z,0.40
2023-04-03T21:38:51.569Z,0.40
2023-04-03T21:41:19.440Z,0.40
2023-04-03T21:43:47.979Z,0.40
2023-04-03T21:46:16.019Z,0.40
2023-04-03T21:48:46.930Z,0.47
2023-04-03T21:51:17.182Z,0.40
2023-04-03T21:53:45.785Z,0.40
2023-04-03T21:56:13.643Z,0.70
2023-04-03T21:58:41.683Z,0.40
2023-04-03T22:01:10.994Z,0.40
2023-04-03T22:03:39.145Z,0.53
2023-04-03T22:06:07.254Z,0.40
2023-04-03T22:08:36.793Z,0.40
2023-04-03T22:11:06.970Z,0.40
2023-04-03T22:13:35.592Z,0.57
2023-04-03T22:16:03.469Z,0.30
2023-04-03T22:18:31.596Z,0.50
2023-04-03T22:20:59.503Z,0.50
2023-04-03T22:23:27.705Z,0.40
2023-04-03T22:26:04.718Z,0.40
2023-04-03T22:28:33.761Z,0.40
2023-04-03T22:31:07.232Z,0.40
2023-04-03T22:33:36.347Z,0.70
2023-04-03T22:36:04.886Z,0.50
2023-04-03T22:38:33.023Z,0.40
2023-04-03T22:41:04.137Z,0.20
2023-04-03T22:43:34.094Z,0.37
2023-04-03T22:46:02.884Z,0.40
2023-04-03T22:48:31.055Z,0.63
2023-04-03T22:51:00.946Z,0.30
2023-04-03T22:53:29.248Z,0.40
2023-04-03T22:55:58.156Z,0.30
2023-04-03T22:58:27.727Z,0.37
2023-04-03T23:00:56.173Z,0.57
2023-04-03T23:03:25.444Z,0.40
2023-04-03T23:05:56.077Z,0.50
2023-04-03T23:08:24.249Z,0.50
2023-04-03T23:10:55.572Z,0.50
2023-04-03T23:13:23.494Z,0.40
2023-04-03T23:15:55.629Z,0.40
2023-04-03T23:18:23.882Z,0.67
2023-04-03T23:20:54.367Z,0.40
2023-04-03T23:23:23.392Z,0.50
2023-04-03T23:25:53.480Z,0.50
2023-04-03T23:28:21.885Z,0.80
2023-04-03T23:30:51.039Z,0.90
2023-04-03T23:33:20.325Z,0.97
2023-04-03T23:35:49.157Z,0.60
2023-04-03T23:38:17.589Z,0.50
2023-04-03T23:40:47.058Z,0.63
2023-04-03T23:43:15.185Z,0.50
2023-04-03T23:45:43.191Z,0.53
2023-04-03T23:48:11.077Z,0.70
2023-04-03T23:50:40.462Z,0.67
2023-04-03T23:53:08.654Z,0.70
2023-04-03T23:55:36.640Z,1.00
2023-04-03T23:58:04.513Z,0.50
